Grimsley, Tennessee
Current Conditions -  °F | °C
As of 11:53 AM on Saturday 25 Oct 2014 (Local Time) from KCSV Reporting Station
Broken Clouds Broken Clouds  
Wind Chill: 20°   Ceiling: 3800
Heat Index: 20°   Visibility: 10mi
Dew Point:   Wind: 7mph
Humidity: 45%   Direction: 280°W
Pressure: 30.1"   Gusts: NA
Location:  36.27°N, 84.98°W
Report Text: KCSV 251653Z AUTO 28006KT 10SM BKN038 20/08 A3010 RMK AO2 SLP185 T02000078
Loading
Personal Weather Stations






























Interactive Weather Map
Tropical Storm Tracking
New forecast layout! Learn more

10-Day Weather Forecast

Advertisements
Track Severe Weather on mobile